Time;durP1;ratioP1;P1;durP2;ratioP2;P2;SDS_P1;SDS_P2;PMS_P1;PMS_P2;Temp;Humidity;BMP_temperature;BMP_pressure;BME280_temperature;BME280_humidity;BME280_pressure;Samples;Min_cycle;Max_cycle;Signal;HPM_P1;HPM_P2
2021/05/03 00:01:37;;;;;;;;;;;;;;;-142.75;63.05;78722.41;5094696;28;19916;-75
2021/05/03 00:04:02;;;;;;;;;;;;;;;-142.75;62.94;78728.31;5103265;28;19924;-75
2021/05/03 00:06:27;;;;;;;;;;;;;;;-142.75;63.05;78730.28;5113630;28;20010;-75
2021/05/03 00:08:52;;;;;;;;;;;;;;;-142.75;63.08;78724.38;5113671;28;19916;-75
2021/05/03 00:11:17;;;;;;;;;;;;;;;-142.75;62.91;78720.44;5112964;28;19946;-74
2021/05/03 00:13:43;;;;;;;;;;;;;;;-142.75;63.06;78726.34;5113522;28;19923;-73
2021/05/03 00:16:08;;;;;;;;;;;;;;;-142.75;63.03;78734.22;5095426;28;20395;-75
2021/05/03 00:18:33;;;;;;;;;;;;;;;-142.75;63.23;78744.09;5113405;28;19922;-75
2021/05/03 00:20:58;;;;;;;;;;;;;;;-142.75;63.55;78746.03;5113208;28;19923;-75
2021/05/03 00:23:23;;;;;;;;;;;;;;;-142.75;63.14;78748.03;5095334;28;20010;-74
2021/05/03 00:25:49;;;;;;;;;;;;;;;-142.75;63.21;78759.84;5095222;28;19926;-75
2021/05/03 00:28:14;;;;;;;;;;;;;;;-142.75;63.61;78765.75;5113247;28;19966;-74
2021/05/03 00:30:39;;;;;;;;;;;;;;;-142.75;63.58;78767.72;5094764;28;19927;-76
2021/05/03 00:33:05;;;;;;;;;;;;;;;-142.75;63.67;78757.88;5094937;28;19931;-75
2021/05/03 00:35:30;;;;;;;;;;;;;;;-142.75;63.78;78765.75;5113143;28;19927;-75
2021/05/03 00:37:56;;;;;;;;;;;;;;;-142.75;63.82;78771.66;5079637;28;19923;-76
2021/05/03 00:40:21;;;;;;;;;;;;;;;-142.75;63.97;78771.66;5074534;28;20420;-73
2021/05/03 00:42:46;;;;;;;;;;;;;;;-142.75;64.13;78767.72;5074528;28;20385;-75
2021/05/03 00:45:13;;;;;;;;;;;;;;;-142.75;64.01;78771.66;5074729;28;19920;-75
2021/05/03 00:47:39;;;;;;;;;;;;;;;-142.75;64.04;78775.59;5074716;28;19923;-75
2021/05/03 00:50:05;;;;;;;;;;;;;;;-142.75;64.01;78777.56;5074293;28;19920;-75
2021/05/03 00:52:30;;;;;;;;;;;;;;;-142.75;64.03;78783.47;5074227;28;19920;-75
2021/05/03 00:54:55;;;;;;;;;;;;;;;-142.75;64.51;78779.53;5092571;28;19920;-75
2021/05/03 00:57:21;;;;;;;;;;;;;;;-142.75;64.35;78787.41;5074278;28;20278;-74
2021/05/03 00:59:46;;;;;;;;;;;;;;;-142.75;64.36;78783.47;5092585;28;19916;-75
2021/05/03 01:02:12;;;;;;;;;;;;;;;-142.75;64.59;78763.78;5092049;28;19916;-75
2021/05/03 01:04:37;;;;;;;;;;;;;;;-142.75;64.62;78781.50;5092297;28;20002;-75
2021/05/03 01:07:02;;;;;;;;;;;;;;;-142.75;64.78;78787.41;5073864;28;20016;-75
2021/05/03 01:09:27;;;;;;;;;;;;;;;-142.75;64.82;78777.56;5092248;28;19977;-74
2021/05/03 01:11:52;;;;;;;;;;;;;;;-142.75;64.79;78779.53;5073569;28;19987;-75
2021/05/03 01:14:18;;;;;;;;;;;;;;;-142.75;64.54;78783.47;5073847;28;20411;-75
2021/05/03 01:16:43;;;;;;;;;;;;;;;-142.75;64.97;78771.66;5073628;28;19920;-75
2021/05/03 01:19:08;;;;;;;;;;;;;;;-142.75;64.94;78771.66;5092002;28;19916;-75
2021/05/03 01:21:33;;;;;;;;;;;;;;;-142.75;65.00;78769.69;5073752;28;19916;-75
2021/05/03 01:23:58;;;;;;;;;;;;;;;-142.75;65.09;78773.63;5091315;28;20526;-75
2021/05/03 01:26:24;;;;;;;;;;;;;;;-142.75;65.17;78761.81;5073873;28;19923;-75
2021/05/03 01:28:49;;;;;;;;;;;;;;;-142.75;65.00;78759.84;5085206;28;19923;-75
2021/05/03 01:31:15;;;;;;;;;;;;;;;-142.75;65.40;78742.09;5112226;28;20013;-77
2021/05/03 01:33:40;;;;;;;;;;;;;;;-142.75;65.02;78734.22;5112406;28;20335;-75
2021/05/03 01:36:06;;;;;;;;;;;;;;;-142.75;64.82;78732.25;5112267;28;19992;-76
2021/05/03 01:38:31;;;;;;;;;;;;;;;-142.75;65.00;78724.38;5112276;28;19916;-76
2021/05/03 01:40:56;;;;;;;;;;;;;;;-142.75;64.94;78724.38;5093687;28;19915;-76
2021/05/03 01:43:23;;;;;;;;;;;;;;;-142.75;64.95;78736.19;5112131;28;19937;-76
2021/05/03 01:45:49;;;;;;;;;;;;;;;-142.75;64.88;78736.19;5111943;28;19938;-76
2021/05/03 01:48:16;;;;;;;;;;;;;;;-142.75;64.88;78736.19;5093600;28;19922;-76
2021/05/03 01:50:41;;;;;;;;;;;;;;;-142.75;64.78;78740.13;5111607;28;19959;-75
2021/05/03 01:53:07;;;;;;;;;;;;;;;-142.75;64.84;78751.97;5093897;28;19955;-75
2021/05/03 01:55:36;;;;;;;;;;;;;;;-142.75;64.67;78755.91;5111877;28;19953;-75
2021/05/03 01:58:03;;;;;;;;;;;;;;;-142.75;64.44;78751.97;5093806;28;20337;-75
2021/05/03 02:00:29;;;;;;;;;;;;;;;-142.75;64.42;78751.97;5080061;28;19920;-74
2021/05/03 02:02:54;;;;;;;;;;;;;;;-142.75;64.23;78755.91;5101418;28;19979;-75
2021/05/03 02:05:21;;;;;;;;;;;;;;;-142.75;64.54;78755.91;5111739;28;20358;-76
2021/05/03 02:07:53;;;;;;;;;;;;;;;-142.75;64.43;78757.88;5093399;28;19924;-76
2021/05/03 02:10:19;;;;;;;;;;;;;;;-142.75;64.59;78755.91;5093279;28;20297;-74
2021/05/03 02:12:44;;;;;;;;;;;;;;;-142.75;64.50;78751.97;5111632;28;19916;-75
2021/05/03 02:15:09;;;;;;;;;;;;;;;-142.75;64.41;78755.91;5093386;28;20028;-75
2021/05/03 02:17:34;;;;;;;;;;;;;;;-142.75;64.51;78755.91;5093586;28;19940;-76
2021/05/03 02:20:00;;;;;;;;;;;;;;;-142.75;64.30;78748.03;5111670;28;19920;-76
2021/05/03 02:22:25;;;;;;;;;;;;;;;-142.75;64.21;78751.97;5111271;28;19923;-76
2021/05/03 02:24:50;;;;;;;;;;;;;;;-142.75;64.21;78755.91;5111529;28;19919;-76
2021/05/03 02:27:15;;;;;;;;;;;;;;;-142.75;64.24;78755.91;5111391;28;19927;-77
2021/05/03 02:29:40;;;;;;;;;;;;;;;-142.75;64.31;78744.09;5111503;28;20349;-75
2021/05/03 02:32:06;;;;;;;;;;;;;;;-142.75;64.44;78748.03;5111471;28;19966;-76
2021/05/03 02:34:31;;;;;;;;;;;;;;;-142.75;64.41;78740.13;5094753;28;19916;-76
2021/05/03 02:36:57;;;;;;;;;;;;;;;-142.75;64.32;78730.28;5097344;28;19920;-75
2021/05/03 02:39:22;;;;;;;;;;;;;;;-142.75;64.25;78728.31;5077283;28;19958;-75
2021/05/03 02:41:47;;;;;;;;;;;;;;;-142.75;64.40;78722.41;5076898;28;19916;-76
2021/05/03 02:44:14;;;;;;;;;;;;;;;-142.75;64.40;78730.28;5076693;28;19999;-76
2021/05/03 02:46:40;;;;;;;;;;;;;;;-142.75;64.38;78730.28;5076728;28;19920;-75
2021/05/03 02:49:05;;;;;;;;;;;;;;;-142.75;64.99;78732.25;5076798;28;19984;-76
2021/05/03 02:51:31;;;;;;;;;;;;;;;-142.75;65.25;78712.56;5076342;28;19924;-75
2021/05/03 02:53:56;;;;;;;;;;;;;;;-142.75;64.96;78712.56;5094912;28;19920;-76
2021/05/03 02:56:21;;;;;;;;;;;;;;;-142.75;64.84;78704.69;5081344;28;20395;-76
2021/05/03 02:58:46;;;;;;;;;;;;;;;-142.75;64.92;78702.72;5096773;28;19917;-76
2021/05/03 03:01:11;;;;;;;;;;;;;;;-142.75;64.76;78708.63;5096598;28;19959;-76
2021/05/03 03:03:36;;;;;;;;;;;;;;;-142.75;65.16;78681.06;5096807;28;19947;-74
2021/05/03 03:06:02;;;;;;;;;;;;;;;-142.75;65.17;78692.88;5096813;28;20385;-75
2021/05/03 03:08:27;;;;;;;;;;;;;;;-142.75;65.13;78677.13;5098279;28;19916;-76
2021/05/03 03:10:52;;;;;;;;;;;;;;;-142.75;65.21;78679.09;5094314;28;19916;-76
2021/05/03 03:13:17;;;;;;;;;;;;;;;-142.75;64.94;78671.22;5076209;28;19922;-76
2021/05/03 03:15:43;;;;;;;;;;;;;;;-142.75;64.90;78679.09;5076134;28;19924;-76
2021/05/03 03:18:08;;;;;;;;;;;;;;;-142.75;65.03;78667.25;5076704;28;19916;-76
2021/05/03 03:20:33;;;;;;;;;;;;;;;-142.75;64.91;78669.25;5094725;28;20370;-75
2021/05/03 03:22:59;;;;;;;;;;;;;;;-142.75;64.79;78681.06;5094655;28;19919;-76
2021/05/03 03:25:25;;;;;;;;;;;;;;;-142.75;64.76;78677.13;5094537;28;19916;-76
2021/05/03 03:27:50;;;;;;;;;;;;;;;-142.75;64.41;78681.06;5076306;28;19939;-75
2021/05/03 03:30:16;;;;;;;;;;;;;;;-142.75;64.64;78692.88;5076483;28;20366;-76
2021/05/03 03:32:45;;;;;;;;;;;;;;;-142.75;64.99;78714.53;5076397;28;19916;-75
2021/05/03 03:35:17;;;;;;;;;;;;;;;-142.75;65.12;78724.38;5076325;28;19931;-75
2021/05/03 03:37:43;;;;;;;;;;;;;;;-142.75;65.03;78724.38;5076144;28;19916;-75
2021/05/03 03:40:09;;;;;;;;;;;;;;;-142.75;64.97;78714.53;5094430;28;19941;-76
2021/05/03 03:42:35;;;;;;;;;;;;;;;-142.75;65.18;78704.69;5093980;28;19916;-76
2021/05/03 03:45:00;;;;;;;;;;;;;;;-142.75;64.99;78692.88;5076073;28;19916;-75
2021/05/03 03:47:25;;;;;;;;;;;;;;;-142.75;64.99;78704.69;5075410;28;19948;-76
2021/05/03 03:49:51;;;;;;;;;;;;;;;-142.75;65.13;78692.88;5076194;28;19923;-76
2021/05/03 03:52:16;;;;;;;;;;;;;;;-142.75;64.86;78683.03;5075768;28;19961;-75
2021/05/03 03:54:41;;;;;;;;;;;;;;;-142.75;64.78;78679.09;5093922;28;21263;-77
2021/05/03 03:57:06;;;;;;;;;;;;;;;-142.75;64.85;78681.06;5076054;28;19916;-75
2021/05/03 03:59:35;;;;;;;;;;;;;;;-142.75;64.36;78677.13;5075988;28;19996;-75
2021/05/03 04:02:00;;;;;;;;;;;;;;;-142.75;64.41;78661.34;5075943;28;19916;-75
2021/05/03 04:04:29;;;;;;;;;;;;;;;-142.75;64.30;78663.31;5094507;28;19923;-75
2021/05/03 04:07:12;;;;;;;;;;;;;;;-142.75;64.38;78665.28;5114676;28;20343;-76
2021/05/03 04:09:52;;;;;;;;;;;;;;;-142.75;64.41;78667.25;5096306;28;19923;-75
2021/05/03 04:25:57;;;;;;;;;;;;;;;-142.75;63.45;78653.47;5113742;28;19936;-76
2021/05/03 04:28:22;;;;;;;;;;;;;;;-142.75;63.23;78645.59;5086574;28;19916;-73
2021/05/03 04:30:47;;;;;;;;;;;;;;;-142.75;62.96;78627.88;5092898;28;20456;-75
2021/05/03 04:33:13;;;;;;;;;;;;;;;-142.75;62.99;78633.78;5075495;28;19924;-76
2021/05/03 04:35:38;;;;;;;;;;;;;;;-142.75;62.96;78614.09;5076626;28;19924;-75
2021/05/03 04:38:03;;;;;;;;;;;;;;;-142.75;62.98;78606.22;5089317;28;19923;-74
2021/05/03 04:40:28;;;;;;;;;;;;;;;-142.75;62.76;78602.28;5085948;28;19916;-75
2021/05/03 04:42:54;;;;;;;;;;;;;;;-142.75;62.58;78594.41;5113326;28;20392;-75
2021/05/03 04:45:19;;;;;;;;;;;;;;;-142.75;62.57;78592.44;5100714;28;19927;-76
2021/05/03 04:47:45;;;;;;;;;;;;;;;-142.75;62.58;78586.53;5093351;28;20007;-75
2021/05/03 04:50:10;;;;;;;;;;;;;;;-142.75;62.44;78584.56;5075403;28;19923;-75
2021/05/03 04:52:36;;;;;;;;;;;;;;;-142.75;62.00;78572.72;5075469;28;20296;-74
2021/05/03 04:55:02;;;;;;;;;;;;;;;-142.75;62.11;78572.72;5093187;28;19942;-75
2021/05/03 04:57:27;;;;;;;;;;;;;;;-142.75;62.13;78562.88;5074160;28;20321;-75
2021/05/03 04:59:52;;;;;;;;;;;;;;;-142.75;62.39;78564.84;5074576;28;19927;-76
2021/05/03 05:02:18;;;;;;;;;;;;;;;-142.75;62.05;78551.06;5093132;28;19916;-75
2021/05/03 05:04:43;;;;;;;;;;;;;;;-142.75;62.08;78551.06;5103011;28;19916;-76
2021/05/03 05:07:08;;;;;;;;;;;;;;;-142.75;62.27;78556.97;5081153;28;19915;-75
2021/05/03 05:09:33;;;;;;;;;;;;;;;-142.75;62.09;78556.97;5089551;28;19916;-75
2021/05/03 05:11:58;;;;;;;;;;;;;;;-142.75;62.09;78558.94;5085368;28;19962;-75
2021/05/03 05:14:24;;;;;;;;;;;;;;;-142.75;62.18;78556.97;5093499;28;20002;-76
2021/05/03 05:16:49;;;;;;;;;;;;;;;-142.75;62.07;78547.13;5073866;28;19920;-75
2021/05/03 05:19:14;;;;;;;;;;;;;;;-142.75;61.57;78535.31;5092885;28;20306;-75
2021/05/03 05:21:40;;;;;;;;;;;;;;;-142.75;61.68;78521.53;5112063;28;19953;-75
2021/05/03 05:24:06;;;;;;;;;;;;;;;-142.75;61.68;78527.44;5092470;28;19916;-76
2021/05/03 05:26:31;;;;;;;;;;;;;;;-142.75;61.69;78513.66;5091929;28;19941;-75
2021/05/03 05:28:57;;;;;;;;;;;;;;;-142.75;61.53;78495.94;5073935;28;19916;-74
2021/05/03 05:31:22;;;;;;;;;;;;;;;-142.75;61.78;78491.97;5091590;28;19970;-76
2021/05/03 05:33:47;;;;;;;;;;;;;;;-142.75;61.85;78484.09;5091926;28;20301;-74
2021/05/03 05:36:13;;;;;;;;;;;;;;;-142.75;61.50;78478.19;5073487;28;19920;-75
2021/05/03 05:38:38;;;;;;;;;;;;;;;-142.75;61.87;78480.16;5091474;28;20353;-76
2021/05/03 05:41:03;;;;;;;;;;;;;;;-142.75;61.20;78450.63;5073414;28;19969;-74
2021/05/03 05:43:29;;;;;;;;;;;;;;;-142.75;60.81;78425.03;5091668;28;19986;-75
2021/05/03 05:45:54;;;;;;;;;;;;;;;-142.75;60.98;78401.38;5073854;28;19920;-74
2021/05/03 05:48:19;;;;;;;;;;;;;;;-142.75;60.04;78371.84;5091429;28;19949;-74
2021/05/03 05:50:44;;;;;;;;;;;;;;;-142.75;60.35;78371.84;5072935;28;19998;-73
2021/05/03 05:53:09;;;;;;;;;;;;;;;-142.75;60.44;78371.84;5091435;28;20008;-77
2021/05/03 05:55:35;;;;;;;;;;;;;;;-142.75;60.49;78381.69;5092321;28;20350;-77
2021/05/03 05:58:00;;;;;;;;;;;;;;;-142.75;60.40;78365.94;5079218;28;19916;-73
2021/05/03 06:00:25;;;;;;;;;;;;;;;-142.75;60.80;78352.16;5093299;28;20014;-74
2021/05/03 06:02:50;;;;;;;;;;;;;;;-142.75;60.54;78334.44;5111493;28;20270;-73
2021/05/03 06:05:15;;;;;;;;;;;;;;;-142.75;60.00;78308.84;5093172;28;19916;-75
2021/05/03 06:07:41;;;;;;;;;;;;;;;-142.75;59.64;78281.25;5111208;28;20605;-73
2021/05/03 06:10:07;;;;;;;;;;;;;;;-142.75;59.63;78255.66;5111039;28;19923;-73
2021/05/03 06:12:32;;;;;;;;;;;;;;;-142.75;59.13;78235.97;5074769;28;19931;-74
2021/05/03 06:14:57;;;;;;;;;;;;;;;-142.75;58.79;78234.00;5073187;28;19916;-72
2021/05/03 06:17:22;;;;;;;;;;;;;;;-142.75;58.71;78224.16;5073079;28;19916;-73
2021/05/03 06:19:48;;;;;;;;;;;;;;;-142.75;58.33;78196.59;5090672;28;20070;-73
2021/05/03 06:22:13;;;;;;;;;;;;;;;-142.75;58.51;78212.34;5089894;28;19916;-72
2021/05/03 06:24:38;;;;;;;;;;;;;;;-142.75;59.20;78220.22;5090069;28;19947;-73
2021/05/03 06:27:04;;;;;;;;;;;;;;;-142.75;59.00;78208.41;5090134;28;20019;-73
2021/05/03 06:29:29;;;;;;;;;;;;;;;-142.75;59.07;78214.31;5090303;28;19924;-73
2021/05/03 06:31:56;;;;;;;;;;;;;;;-142.75;58.88;78200.53;5089854;28;19923;-73
2021/05/03 06:34:23;;;;;;;;;;;;;;;-142.75;59.36;78228.09;5089842;28;19924;-75
2021/05/03 06:36:48;;;;;;;;;;;;;;;-142.75;59.45;78222.19;5071776;28;19920;-74
2021/05/03 06:39:13;;;;;;;;;;;;;;;-142.75;59.49;78206.44;5090073;28;20434;-73
2021/05/03 06:41:38;;;;;;;;;;;;;;;-142.75;59.62;78194.63;5095793;28;19916;-72
2021/05/03 06:44:03;;;;;;;;;;;;;;;-142.75;59.53;78182.81;5110397;28;20454;-74
2021/05/03 06:46:29;;;;;;;;;;;;;;;-142.75;59.69;78176.88;5091906;28;19923;-73
2021/05/03 06:48:54;;;;;;;;;;;;;;;-142.75;59.68;78149.31;5109622;28;19967;-74
2021/05/03 06:51:19;;;;;;;;;;;;;;;-142.75;59.57;78145.38;5109997;28;19923;-74
2021/05/03 06:53:44;;;;;;;;;;;;;;;-142.75;59.22;78121.75;5110473;28;19999;-74
2021/05/03 06:56:09;;;;;;;;;;;;;;;-142.75;59.38;78080.41;5110592;28;20304;-73
2021/05/03 06:58:34;;;;;;;;;;;;;;;-142.75;58.67;78046.91;5110331;28;19919;-73
2021/05/03 07:01:00;;;;;;;;;;;;;;;-142.75;58.06;78058.72;5109922;28;19951;-73
2021/05/03 07:03:25;;;;;;;;;;;;;;;-142.75;58.87;78056.78;5092013;28;20377;-74
2021/05/03 07:05:50;;;;;;;;;;;;;;;-142.75;58.58;78007.53;5091466;28;20452;-74
2021/05/03 07:08:18;;;;;;;;;;;;;;;-142.75;58.06;77966.19;5091983;28;19923;-73
2021/05/03 07:10:45;;;;;;;;;;;;;;;-142.75;57.31;77930.75;5096577;28;19916;-74
2021/05/03 07:13:10;;;;;;;;;;;;;;;-142.75;56.48;77905.13;5071959;28;20461;-74
2021/05/03 07:15:35;;;;;;;;;;;;;;;-142.75;56.95;77887.41;5090009;28;20034;-74
2021/05/03 07:18:00;;;;;;;;;;;;;;;-142.75;55.87;77861.81;5071284;28;20266;-75
2021/05/03 07:20:26;;;;;;;;;;;;;;;-142.75;55.36;77802.75;5095835;28;20446;-73
2021/05/03 07:22:51;;;;;;;;;;;;;;;-142.75;55.42;77761.41;5095123;28;19961;-74
2021/05/03 07:25:16;;;;;;;;;;;;;;;-142.75;54.32;77718.06;5113538;28;19916;-73
2021/05/03 07:27:41;;;;;;;;;;;;;;;-142.75;53.16;77704.28;5113531;28;20346;-74
2021/05/03 07:30:08;;;;;;;;;;;;;;;-142.75;52.73;77682.63;5110927;28;19923;-73
2021/05/03 07:32:33;;;;;;;;;;;;;;;-142.75;53.54;77684.59;5074571;28;19920;-74
2021/05/03 07:34:58;;;;;;;;;;;;;;;-142.75;52.00;77633.41;5092919;28;19923;-73
2021/05/03 07:37:23;;;;;;;;;;;;;;;-142.75;51.66;77538.91;5093130;28;19916;-72
2021/05/03 07:39:49;;;;;;;;;;;;;;;-142.75;50.46;77531.03;5075023;28;20136;-74
2021/05/03 07:42:14;;;;;;;;;;;;;;;-142.75;50.46;77558.59;5074708;28;19920;-74
2021/05/03 07:44:39;;;;;;;;;;;;;;;-142.75;51.00;77566.47;5074943;28;20058;-73
2021/05/03 07:47:04;;;;;;;;;;;;;;;-142.75;51.55;77562.53;5098555;28;20289;-72
2021/05/03 07:49:30;;;;;;;;;;;;;;;-142.75;50.05;77473.94;5113270;28;19915;-73
2021/05/03 07:51:55;;;;;;;;;;;;;;;-142.75;50.09;77456.22;5112643;28;19923;-70
2021/05/03 07:54:20;;;;;;;;;;;;;;;-142.75;49.11;77385.31;5094820;28;19920;-73
2021/05/03 07:56:46;;;;;;;;;;;;;;;-142.75;48.81;77381.38;5102820;28;19924;-74
2021/05/03 07:59:11;;;;;;;;;;;;;;;-142.75;48.17;77385.31;5082335;28;19916;-73
2021/05/03 08:01:37;;;;;;;;;;;;;;;-142.75;48.79;77444.38;5081761;28;19924;-74
2021/05/03 08:04:02;;;;;;;;;;;;;;;-142.75;48.97;77442.41;5078704;28;19942;-74
2021/05/03 08:06:27;;;;;;;;;;;;;;;-142.75;48.56;77377.44;5097732;28;19990;-73
2021/05/03 08:08:53;;;;;;;;;;;;;;;-142.75;48.19;77373.50;5078075;28;20010;-74
2021/05/03 08:11:19;;;;;;;;;;;;;;;-142.75;47.85;77361.69;5076382;28;19920;-73
2021/05/03 08:13:45;;;;;;;;;;;;;;;-142.75;47.53;77342.00;5076770;28;19920;-73
2021/05/03 08:16:13;;;;;;;;;;;;;;;-142.75;47.76;77375.47;5074851;28;20373;-74
2021/05/03 08:18:39;;;;;;;;;;;;;;;-142.75;48.11;77385.31;5097447;28;20512;-74
2021/05/03 08:21:05;;;;;;;;;;;;;;;-142.75;47.90;77318.38;5082401;28;19923;-73
2021/05/03 08:23:30;;;;;;;;;;;;;;;-142.75;47.08;77280.97;5081834;28;19916;-74
2021/05/03 08:25:55;;;;;;;;;;;;;;;-142.75;46.90;77326.25;5080290;28;19916;-74
2021/05/03 08:28:21;;;;;;;;;;;;;;;-142.75;48.03;77351.84;5098422;28;20297;-74
2021/05/03 08:30:47;;;;;;;;;;;;;;;-142.75;46.74;77322.31;5077446;28;19923;-72
2021/05/03 08:33:13;;;;;;;;;;;;;;;-142.75;47.23;77342.00;5095886;28;19916;-72
2021/05/03 08:35:38;;;;;;;;;;;;;;;-142.75;46.95;77377.44;5082008;28;20373;-74
2021/05/03 08:38:04;;;;;;;;;;;;;;;-142.75;47.62;77343.97;5112834;28;19923;-74
2021/05/03 08:40:29;;;;;;;;;;;;;;;-142.75;47.42;77304.59;5093650;28;19920;-73
2021/05/03 08:42:56;;;;;;;;;;;;;;;-142.75;45.85;77306.56;5093934;28;19916;-75
2021/05/03 08:45:21;;;;;;;;;;;;;;;-142.75;46.12;77300.66;5093880;28;20414;-73
2021/05/03 08:53:10;;;;;;;;;;;;;;;-142.75;44.11;77170.72;5111998;28;19920;-74
2021/05/03 08:55:36;;;;;;;;;;;;;;;-142.75;44.10;77180.56;5093614;28;19926;-74
2021/05/03 08:58:01;;;;;;;;;;;;;;;-142.75;44.01;77194.34;5112063;28;20384;-71
2021/05/03 09:00:27;;;;;;;;;;;;;;;-142.75;44.46;77141.19;5111675;28;19922;-73
2021/05/03 09:02:53;;;;;;;;;;;;;;;-142.75;43.30;77090.00;5112254;28;19955;-72
2021/05/03 09:05:18;;;;;;;;;;;;;;;-142.75;42.40;76987.63;5111848;28;20076;-74
2021/05/03 09:07:50;;;;;;;;;;;;;;;-142.75;40.69;76936.44;5111515;28;20393;-72
2021/05/03 09:10:17;;;;;;;;;;;;;;;-142.75;39.71;76895.09;5112071;28;19922;-73
2021/05/03 09:12:42;;;;;;;;;;;;;;;-142.75;39.64;76869.50;5111467;28;19977;-74
2021/05/03 09:15:08;;;;;;;;;;;;;;;-142.75;39.67;76989.59;5111560;28;19919;-72
2021/05/03 09:17:34;;;;;;;;;;;;;;;-142.75;41.83;77074.25;5111452;28;20339;-73
2021/05/03 09:20:13;;;;;;;;;;;;;;;-142.75;42.49;77137.25;5111568;28;19919;-73
2021/05/03 09:25:48;;;;;;;;;;;;;;;-142.75;42.67;77068.34;5109662;28;19976;-74
2021/05/03 09:28:19;;;;;;;;;;;;;;;-142.75;43.14;77023.06;5111452;28;19926;-74
2021/05/03 09:30:56;;;;;;;;;;;;;;;-142.75;42.02;77034.88;5074559;28;19916;-74
2021/05/03 09:33:27;;;;;;;;;;;;;;;-142.75;42.22;77011.25;5091094;28;19966;-74
2021/05/03 09:35:59;;;;;;;;;;;;;;;-142.75;41.21;76987.63;5091383;28;19924;-75
2021/05/03 09:38:38;;;;;;;;;;;;;;;-142.75;39.59;76946.28;5085903;28;19916;-74
2021/05/03 09:41:08;;;;;;;;;;;;;;;-142.75;39.90;76995.50;5082988;28;19916;-74
2021/05/03 09:43:33;;;;;;;;;;;;;;;-142.75;41.01;77028.97;5090696;28;19975;-73
2021/05/03 09:45:58;;;;;;;;;;;;;;;-142.75;40.71;77028.97;5090622;28;20339;-75
2021/05/03 09:48:24;;;;;;;;;;;;;;;-142.75;39.77;77011.25;5090947;28;20325;-74
2021/05/03 09:50:50;;;;;;;;;;;;;;;-142.75;40.70;77011.25;5072467;28;20381;-74
2021/05/03 09:53:15;;;;;;;;;;;;;;;-142.75;40.00;76977.78;5072944;28;19920;-75
2021/05/03 09:55:45;;;;;;;;;;;;;;;-142.75;39.46;76918.72;5099468;28;19930;-74
2021/05/03 09:58:19;;;;;;;;;;;;;;;-142.75;39.80;76853.75;5111054;28;19934;-75
2021/05/03 10:00:51;;;;;;;;;;;;;;;-142.75;39.80;76814.38;5092392;28;19965;-74
2021/05/03 10:03:28;;;;;;;;;;;;;;;-142.75;38.69;76814.38;5111258;28;20269;-74
2021/05/03 10:05:53;;;;;;;;;;;;;;;-142.75;39.39;76920.69;5110798;28;19924;-74
2021/05/03 10:08:18;;;;;;;;;;;;;;;-142.75;40.34;76881.31;5110824;28;20698;-73
2021/05/03 10:10:48;;;;;;;;;;;;;;;-142.75;40.00;76849.81;5111594;28;19916;-73
2021/05/03 10:13:14;;;;;;;;;;;;;;;-142.75;38.46;76906.91;5111419;28;20472;-75
2021/05/03 10:15:39;;;;;;;;;;;;;;;-142.75;39.00;76826.19;5111183;28;20018;-73
2021/05/03 10:18:04;;;;;;;;;;;;;;;-142.75;38.58;76812.41;5110644;28;19984;-74
2021/05/03 10:20:30;;;;;;;;;;;;;;;-142.75;38.45;76763.22;5092106;28;19924;-74
2021/05/03 10:22:56;;;;;;;;;;;;;;;-142.75;37.76;76698.25;5086786;28;20373;-74
2021/05/03 10:25:22;;;;;;;;;;;;;;;-142.75;38.05;76719.91;5072210;28;19931;-74
2021/05/03 10:27:47;;;;;;;;;;;;;;;-142.75;37.11;76652.97;5090415;28;20293;-73
2021/05/03 10:30:18;;;;;;;;;;;;;;;-142.75;36.53;76715.97;5090689;28;19955;-73
2021/05/03 10:32:46;;;;;;;;;;;;;;;-142.75;36.80;76836.03;5072286;28;19999;-74
2021/05/03 10:35:24;;;;;;;;;;;;;;;-142.75;38.46;76901.00;5090312;28;19974;-73
2021/05/03 10:37:51;;;;;;;;;;;;;;;-142.75;39.10;76836.03;5091118;28;19928;-74
2021/05/03 10:40:16;;;;;;;;;;;;;;;-142.75;38.97;76904.94;5072525;28;19916;-74
2021/05/03 10:43:00;;;;;;;;;;;;;;;-142.75;39.83;76979.75;5089871;28;19969;-74
2021/05/03 10:45:38;;;;;;;;;;;;;;;-142.75;39.70;76958.09;5090761;28;19923;-74
2021/05/03 10:48:23;;;;;;;;;;;;;;;-142.75;38.91;76873.44;5090854;28;19969;-74
2021/05/03 10:50:49;;;;;;;;;;;;;;;-142.75;37.97;76786.84;5090370;28;19968;-73
2021/05/03 10:53:35;;;;;;;;;;;;;;;-142.75;37.70;76804.53;5090721;28;19916;-74
2021/05/03 10:56:03;;;;;;;;;;;;;;;-142.75;36.97;76885.25;5075343;28;19923;-74
2021/05/03 10:58:29;;;;;;;;;;;;;;;-142.75;38.81;76836.03;5093975;28;19915;-73
2021/05/03 11:00:55;;;;;;;;;;;;;;;-142.75;38.84;76861.63;5114275;28;19971;-74
2021/05/03 11:03:40;;;;;;;;;;;;;;;-142.75;39.07;76808.50;5113907;28;19923;-74
2021/05/03 11:06:06;;;;;;;;;;;;;;;-142.75;38.42;76863.59;5095691;28;20300;-73
2021/05/03 11:08:31;;;;;;;;;;;;;;;-142.75;37.89;76808.50;5095565;28;19915;-74
2021/05/03 11:10:58;;;;;;;;;;;;;;;-142.75;38.80;76838.00;5095567;28;19915;-74
2021/05/03 11:13:35;;;;;;;;;;;;;;;-142.75;36.88;76796.69;5095134;28;20016;-74
2021/05/03 11:16:21;;;;;;;;;;;;;;;-142.75;38.43;76822.25;5113877;28;20335;-74
2021/05/03 11:18:46;;;;;;;;;;;;;;;-142.75;39.00;76883.28;5113530;28;19916;-74
2021/05/03 11:21:16;;;;;;;;;;;;;;;-142.75;38.69;76924.63;5095110;28;19923;-73
2021/05/03 11:23:42;;;;;;;;;;;;;;;-142.75;38.52;76902.97;5113897;28;19915;-73
2021/05/03 11:26:29;;;;;;;;;;;;;;;-142.75;37.56;76810.44;5113915;28;20254;-76
2021/05/03 11:29:04;;;;;;;;;;;;;;;-142.75;38.47;76869.50;5113648;28;20403;-74
2021/05/03 11:31:31;;;;;;;;;;;;;;;-142.75;36.77;76873.44;5113471;28;19920;-74
2021/05/03 11:34:11;;;;;;;;;;;;;;;-142.75;36.94;76812.41;5113357;28;19915;-74
2021/05/03 11:36:41;;;;;;;;;;;;;;;-142.75;36.24;76806.50;5077948;28;19927;-73
2021/05/03 11:39:26;;;;;;;;;;;;;;;-142.75;35.79;76869.50;5093123;28;19916;-74
2021/05/03 11:42:26;;;;;;;;;;;;;;;-142.75;37.47;76822.25;5074793;28;19916;-75
2021/05/03 11:44:53;;;;;;;;;;;;;;;-142.75;37.54;76910.84;5092996;28;19920;-74
2021/05/03 11:47:30;;;;;;;;;;;;;;;-142.75;37.98;76960.06;5074451;28;20003;-74
2021/05/03 11:49:55;;;;;;;;;;;;;;;-142.75;39.26;76916.75;5092759;28;19923;-75
2021/05/03 11:52:30;;;;;;;;;;;;;;;-142.75;39.17;76922.66;5092671;28;19916;-74
2021/05/03 11:55:12;;;;;;;;;;;;;;;-142.75;39.77;76912.81;5092936;28;19916;-74
2021/05/03 11:57:41;;;;;;;;;;;;;;;-142.75;39.39;76889.19;5107530;28;20015;-73
2021/05/03 12:00:08;;;;;;;;;;;;;;;-142.75;38.33;76839.97;5111886;28;19916;-74
2021/05/03 12:02:33;;;;;;;;;;;;;;;-142.75;38.08;76861.63;5094411;28;19954;-73
2021/05/03 12:04:58;;;;;;;;;;;;;;;-142.75;37.67;76863.59;5112933;28;20362;-74
2021/05/03 12:07:25;;;;;;;;;;;;;;;-142.75;37.52;76863.59;5103914;28;19923;-74
2021/05/03 12:10:10;;;;;;;;;;;;;;;-142.75;38.00;76857.69;5112349;28;20413;-73
2021/05/03 12:12:42;;;;;;;;;;;;;;;-142.75;37.74;76836.03;5100951;28;19916;-74
2021/05/03 12:15:18;;;;;;;;;;;;;;;-142.75;38.21;76869.50;5101174;28;19938;-75
2021/05/03 12:17:43;;;;;;;;;;;;;;;-142.75;38.46;76897.06;5085415;28;19916;-72
2021/05/03 12:20:16;;;;;;;;;;;;;;;-142.75;37.57;76960.06;5123262;22;19922;-76
2021/05/03 12:22:50;;;;;;;;;;;;;;;-142.75;38.65;76964.00;5115029;27;19928;-77
2021/05/03 12:25:16;;;;;;;;;;;;;;;-142.75;38.75;76977.78;5100651;28;19915;-77
2021/05/03 12:27:41;;;;;;;;;;;;;;;-142.75;38.46;76977.78;5117430;27;19919;-77
2021/05/03 12:30:07;;;;;;;;;;;;;;;-142.75;39.71;76995.50;5123585;27;19930;-75
2021/05/03 12:32:36;;;;;;;;;;;;;;;-142.75;39.67;77046.69;5120613;27;20322;-77
2021/05/03 12:35:05;;;;;;;;;;;;;;;-142.75;39.25;77034.88;5113700;28;20304;-76
2021/05/03 12:37:31;;;;;;;;;;;;;;;-142.75;38.65;77015.19;5117991;27;19919;-76
2021/05/03 12:40:03;;;;;;;;;;;;;;;-142.75;37.89;77030.94;5130552;27;19923;-77
2021/05/03 12:42:32;;;;;;;;;;;;;;;-142.75;39.07;77030.94;5125673;27;20293;-76
2021/05/03 12:45:00;;;;;;;;;;;;;;;-142.75;37.99;77011.25;5125597;27;19915;-77
2021/05/03 12:47:45;;;;;;;;;;;;;;;-142.75;38.55;77007.31;5130737;27;20006;-76
2021/05/03 12:52:55;;;;;;;;;;;;;;;-142.75;37.85;76979.75;5132928;27;19915;-77